Time;durP1;ratioP1;P1;durP2;ratioP2;P2;SDS_P1;SDS_P2;PMS_P1;PMS_P2;Temp;Humidity;BMP_temperature;BMP_pressure;BME280_temperature;BME280_humidity;BME280_pressure;Samples;Min_cycle;Max_cycle;Signal;HPM_P1;HPM_P2
2022/12/04 00:01:04;;;;;;;17.02;12.40;;;;;;;;;;4941487;29;20028;-76
2022/12/04 00:03:36;;;;;;;18.83;13.57;;;;;;;;;;4943291;28;20054;-75
2022/12/04 00:06:06;;;;;;;23.45;17.33;;;;;;;;;;4932852;29;20486;-75
2022/12/04 00:08:34;;;;;;;18.17;14.05;;;;;;;;;;4944623;29;20034;-76
2022/12/04 00:11:05;;;;;;;19.58;15.00;;;;;;;;;;4936811;29;20236;-75
2022/12/04 00:13:31;;;;;;;16.88;12.75;;;;;;;;;;4930653;29;20043;-75
2022/12/04 00:15:59;;;;;;;16.27;13.20;;;;;;;;;;4933043;29;20028;-75
2022/12/04 00:18:25;;;;;;;20.55;12.50;;;;;;;;;;4940897;29;20044;-75
2022/12/04 00:20:51;;;;;;;21.70;13.00;;;;;;;;;;4933138;29;20394;-76
2022/12/04 00:23:17;;;;;;;21.52;14.15;;;;;;;;;;4937121;29;20127;-76
2022/12/04 00:25:47;;;;;;;22.75;13.88;;;;;;;;;;4918861;29;20058;-76
2022/12/04 00:28:17;;;;;;;23.17;15.48;;;;;;;;;;4935251;29;20050;-76
2022/12/04 00:30:44;;;;;;;18.63;14.02;;;;;;;;;;4944014;28;20047;-76
2022/12/04 00:33:12;;;;;;;19.88;13.02;;;;;;;;;;4940785;29;20410;-76
2022/12/04 00:35:41;;;;;;;18.23;14.00;;;;;;;;;;4932643;29;20023;-76
2022/12/04 00:38:09;;;;;;;20.85;14.48;;;;;;;;;;4949366;28;20032;-76
2022/12/04 00:40:38;;;;;;;22.13;14.30;;;;;;;;;;4911712;29;20404;-75
2022/12/04 00:43:06;;;;;;;19.77;14.32;;;;;;;;;;4933249;29;20032;-76
2022/12/04 00:45:32;;;;;;;21.45;14.65;;;;;;;;;;4934894;29;20079;-76
2022/12/04 00:48:00;;;;;;;20.67;16.02;;;;;;;;;;4939863;29;20038;-76
2022/12/04 00:50:28;;;;;;;21.60;17.67;;;;;;;;;;4927316;29;20390;-76
2022/12/04 00:53:01;;;;;;;20.80;13.65;;;;;;;;;;4937835;29;20031;-75
2022/12/04 00:55:29;;;;;;;17.13;13.73;;;;;;;;;;4928163;29;20502;-75
2022/12/04 00:57:55;;;;;;;21.42;14.75;;;;;;;;;;4960971;23;20066;-70
2022/12/04 01:00:23;;;;;;;15.32;11.85;;;;;;;;;;4951690;29;20398;-71
2022/12/04 01:02:51;;;;;;;18.80;14.25;;;;;;;;;;4951020;28;20035;-69
2022/12/04 01:05:17;;;;;;;25.08;15.43;;;;;;;;;;4951363;28;20031;-70
2022/12/04 01:07:43;;;;;;;16.38;14.13;;;;;;;;;;4951119;29;20046;-70
2022/12/04 01:10:10;;;;;;;18.45;14.52;;;;;;;;;;4953844;29;20039;-71
2022/12/04 01:12:36;;;;;;;18.90;16.27;;;;;;;;;;4948291;29;20533;-70
2022/12/04 01:15:05;;;;;;;21.45;15.25;;;;;;;;;;4951319;28;20070;-70
2022/12/04 01:17:30;;;;;;;18.90;15.45;;;;;;;;;;4951222;28;20031;-70
2022/12/04 01:19:58;;;;;;;15.65;12.73;;;;;;;;;;4951217;29;20038;-70
2022/12/04 01:22:27;;;;;;;22.23;14.98;;;;;;;;;;4952115;29;20035;-70
2022/12/04 01:24:55;;;;;;;26.10;15.68;;;;;;;;;;4949117;28;20049;-70
2022/12/04 01:27:22;;;;;;;16.52;14.75;;;;;;;;;;4950664;28;20042;-70
2022/12/04 01:29:52;;;;;;;23.25;14.18;;;;;;;;;;4952974;29;20047;-72
2022/12/04 01:32:18;;;;;;;19.58;13.18;;;;;;;;;;4950854;29;20038;-70
2022/12/04 01:34:49;;;;;;;17.40;14.45;;;;;;;;;;4952569;28;20051;-71
2022/12/04 01:37:18;;;;;;;21.35;14.35;;;;;;;;;;4950601;28;20496;-70
2022/12/04 01:39:44;;;;;;;18.67;11.50;;;;;;;;;;4951837;29;20601;-70
2022/12/04 01:42:11;;;;;;;17.77;13.57;;;;;;;;;;4950584;29;20168;-70
2022/12/04 01:44:40;;;;;;;22.63;15.18;;;;;;;;;;4950102;28;20043;-70
2022/12/04 01:47:08;;;;;;;21.08;14.52;;;;;;;;;;4948266;28;20038;-70
2022/12/04 01:49:44;;;;;;;19.15;12.23;;;;;;;;;;4952790;29;20035;-70
2022/12/04 01:52:12;;;;;;;15.80;13.63;;;;;;;;;;4947306;28;20027;-70
2022/12/04 01:54:44;;;;;;;20.23;15.52;;;;;;;;;;4950110;28;20031;-69
2022/12/04 01:57:12;;;;;;;20.77;15.70;;;;;;;;;;4941923;28;20402;-70
2022/12/04 01:59:46;;;;;;;20.30;14.95;;;;;;;;;;4947985;29;20485;-69
2022/12/04 02:02:16;;;;;;;17.63;14.15;;;;;;;;;;4944456;29;20026;-70
2022/12/04 02:04:45;;;;;;;17.80;14.05;;;;;;;;;;4932805;29;20042;-70
2022/12/04 02:07:16;;;;;;;16.02;12.65;;;;;;;;;;4949953;28;20504;-70
2022/12/04 02:09:44;;;;;;;17.10;12.98;;;;;;;;;;4966789;28;20054;-70
2022/12/04 02:12:19;;;;;;;15.45;13.85;;;;;;;;;;4952145;29;20035;-70
2022/12/04 02:14:45;;;;;;;16.02;12.35;;;;;;;;;;4947844;28;20031;-70
2022/12/04 02:17:19;;;;;;;18.02;12.63;;;;;;;;;;4962231;28;20031;-70
2022/12/04 02:19:49;;;;;;;22.15;13.18;;;;;;;;;;4950279;29;20035;-70
2022/12/04 02:22:38;;;;;;;19.13;13.88;;;;;;;;;;4966736;28;20038;-70
2022/12/04 02:25:05;;;;;;;17.65;13.20;;;;;;;;;;4949642;28;20401;-70
2022/12/04 02:27:40;;;;;;;18.02;13.07;;;;;;;;;;4952576;28;20501;-70
2022/12/04 02:30:11;;;;;;;17.48;13.23;;;;;;;;;;4948196;29;20058;-69
2022/12/04 02:32:57;;;;;;;21.30;14.27;;;;;;;;;;4949543;29;20036;-70
2022/12/04 02:35:30;;;;;;;14.77;11.52;;;;;;;;;;4952859;28;20043;-70
2022/12/04 02:37:59;;;;;;;14.40;12.02;;;;;;;;;;4952976;28;20474;-71
2022/12/04 02:40:28;;;;;;;18.52;12.50;;;;;;;;;;4949882;29;20047;-71
2022/12/04 02:42:58;;;;;;;18.45;12.38;;;;;;;;;;4948861;29;20028;-71
2022/12/04 02:45:29;;;;;;;16.98;13.30;;;;;;;;;;4950758;29;20039;-71
2022/12/04 02:47:57;;;;;;;19.30;10.20;;;;;;;;;;4951335;28;20031;-71
2022/12/04 02:50:27;;;;;;;17.63;14.13;;;;;;;;;;4951057;29;20493;-71
2022/12/04 02:52:57;;;;;;;12.65;10.38;;;;;;;;;;4950460;29;20027;-71
2022/12/04 02:55:29;;;;;;;18.58;15.20;;;;;;;;;;4948892;29;20497;-71
2022/12/04 02:57:57;;;;;;;18.27;14.02;;;;;;;;;;4949521;28;20386;-69
2022/12/04 03:00:23;;;;;;;19.65;12.88;;;;;;;;;;4949617;29;20042;-70
2022/12/04 03:02:55;;;;;;;17.38;13.38;;;;;;;;;;4932861;28;20027;-71
2022/12/04 03:05:25;;;;;;;16.13;11.07;;;;;;;;;;4950496;29;20031;-71
2022/12/04 03:07:53;;;;;;;17.80;12.80;;;;;;;;;;4954999;28;20031;-71
2022/12/04 03:10:22;;;;;;;16.08;13.45;;;;;;;;;;4953846;28;20031;-71
2022/12/04 03:12:53;;;;;;;15.55;12.02;;;;;;;;;;4955909;29;20397;-71
2022/12/04 03:15:25;;;;;;;16.10;12.68;;;;;;;;;;4953451;29;20042;-71
2022/12/04 03:17:54;;;;;;;19.65;14.18;;;;;;;;;;4953301;29;20391;-70
2022/12/04 03:20:25;;;;;;;18.88;11.73;;;;;;;;;;4952519;29;20474;-70
2022/12/04 03:22:59;;;;;;;18.65;11.48;;;;;;;;;;4952098;28;20417;-70
2022/12/04 03:25:32;;;;;;;14.80;10.80;;;;;;;;;;4967095;28;20532;-71
2022/12/04 03:28:03;;;;;;;14.82;11.60;;;;;;;;;;4955888;29;20035;-71
2022/12/04 03:30:38;;;;;;;16.30;11.20;;;;;;;;;;4954589;29;20219;-71
2022/12/04 03:33:08;;;;;;;15.65;10.77;;;;;;;;;;4954563;28;20363;-71
2022/12/04 03:35:47;;;;;;;17.42;12.02;;;;;;;;;;4950773;29;20031;-71
2022/12/04 03:38:34;;;;;;;16.58;10.77;;;;;;;;;;4949602;29;20034;-70
2022/12/04 03:41:00;;;;;;;;;;;;;;;;;;4948308;29;20058;-71
2022/12/04 03:43:40;;;;;;;16.00;9.68;;;;;;;;;;4955414;29;19910;-70
2022/12/04 03:46:19;;;;;;;20.23;13.68;;;;;;;;;;4947558;28;20398;-70
2022/12/04 03:48:45;;;;;;;24.20;15.38;;;;;;;;;;4953589;29;20512;-70
2022/12/04 03:51:15;;;;;;;12.75;11.07;;;;;;;;;;4954418;29;20035;-70
2022/12/04 03:53:51;;;;;;;18.58;12.68;;;;;;;;;;4953968;29;20066;-70
2022/12/04 03:56:23;;;;;;;14.48;10.82;;;;;;;;;;4952537;29;20038;-70
2022/12/04 03:58:57;;;;;;;18.73;12.57;;;;;;;;;;4953041;28;20046;-70
2022/12/04 04:01:26;;;;;;;21.40;13.27;;;;;;;;;;4954017;29;20279;-70
2022/12/04 04:03:54;;;;;;;19.20;11.50;;;;;;;;;;4968114;28;20043;-70
2022/12/04 04:06:22;;;;;;;20.13;12.48;;;;;;;;;;4953447;29;20023;-71
2022/12/04 04:08:51;;;;;;;16.10;12.32;;;;;;;;;;4952988;29;20027;-70
2022/12/04 04:11:18;;;;;;;12.68;8.80;;;;;;;;;;4950972;28;20031;-70
2022/12/04 04:25:20;;;;;;;16.00;12.52;;;;;;;;;;4950436;28;20042;-71
2022/12/04 04:27:52;;;;;;;14.68;10.40;;;;;;;;;;4934613;29;20449;-71
2022/12/04 04:30:24;;;;;;;14.87;11.23;;;;;;;;;;4951286;29;20504;-71
2022/12/04 04:33:05;;;;;;;17.42;12.02;;;;;;;;;;4953276;29;20035;-71
2022/12/04 04:35:49;;;;;;;17.85;11.57;;;;;;;;;;4958366;28;20031;-70
2022/12/04 04:38:25;;;;;;;21.02;13.30;;;;;;;;;;4951848;28;20028;-71
2022/12/04 04:40:51;;;;;;;16.40;11.35;;;;;;;;;;4951845;29;20038;-71
2022/12/04 04:43:29;;;;;;;21.80;12.52;;;;;;;;;;4952702;29;20039;-71
2022/12/04 04:46:12;;;;;;;16.80;12.07;;;;;;;;;;4954073;29;20032;-71
2022/12/04 04:48:42;;;;;;;16.65;11.43;;;;;;;;;;4951200;28;20050;-71
2022/12/04 04:51:11;;;;;;;13.60;9.60;;;;;;;;;;4967926;28;20027;-71
2022/12/04 04:53:50;;;;;;;15.88;12.02;;;;;;;;;;4952339;29;20481;-71
2022/12/04 04:56:21;;;;;;;15.80;11.15;;;;;;;;;;4948182;28;20031;-71
2022/12/04 04:58:49;;;;;;;17.73;11.80;;;;;;;;;;4950623;28;20039;-71
2022/12/04 05:01:18;;;;;;;17.05;9.98;;;;;;;;;;4952925;28;20031;-71
2022/12/04 05:03:44;;;;;;;17.77;12.13;;;;;;;;;;4950198;29;20031;-71
2022/12/04 05:06:13;;;;;;;17.17;12.77;;;;;;;;;;4952901;29;20474;-71
2022/12/04 05:08:39;;;;;;;15.70;11.68;;;;;;;;;;4953567;28;20051;-71
2022/12/04 05:11:05;;;;;;;14.20;11.70;;;;;;;;;;4948787;29;20030;-71
2022/12/04 05:13:31;;;;;;;14.48;10.23;;;;;;;;;;4953217;28;20511;-71
2022/12/04 05:15:58;;;;;;;13.80;9.82;;;;;;;;;;4950621;29;20035;-70
2022/12/04 05:18:24;;;;;;;13.07;11.15;;;;;;;;;;4951147;29;20031;-70
2022/12/04 05:20:55;;;;;;;17.00;10.95;;;;;;;;;;4949367;29;20031;-70
2022/12/04 05:23:26;;;;;;;14.13;11.10;;;;;;;;;;4968495;28;20024;-70
2022/12/04 05:25:58;;;;;;;14.40;10.25;;;;;;;;;;4950433;28;20039;-70
2022/12/04 05:28:28;;;;;;;15.25;10.13;;;;;;;;;;4950710;28;20031;-70
2022/12/04 05:30:55;;;;;;;13.85;10.65;;;;;;;;;;4948946;29;20050;-70
2022/12/04 05:33:23;;;;;;;13.80;10.63;;;;;;;;;;4968240;28;20034;-70
2022/12/04 05:36:02;;;;;;;17.90;12.30;;;;;;;;;;4951652;29;20035;-70
2022/12/04 05:38:33;;;;;;;15.02;10.32;;;;;;;;;;4959108;28;20030;-71
2022/12/04 05:41:02;;;;;;;16.65;10.38;;;;;;;;;;4932647;29;20397;-71
2022/12/04 05:43:28;;;;;;;17.85;12.20;;;;;;;;;;4952335;29;20043;-71
2022/12/04 05:45:54;;;;;;;20.23;11.85;;;;;;;;;;4950839;29;20039;-71
2022/12/04 05:48:22;;;;;;;14.45;11.27;;;;;;;;;;4968232;28;20043;-71
2022/12/04 05:50:48;;;;;;;14.77;10.13;;;;;;;;;;4947324;28;20027;-71
2022/12/04 05:53:14;;;;;;;15.75;10.27;;;;;;;;;;4952896;29;20493;-70
2022/12/04 05:55:40;;;;;;;14.95;10.32;;;;;;;;;;4952500;28;20139;-70
2022/12/04 05:58:05;;;;;;;16.45;12.25;;;;;;;;;;4950288;29;20035;-71
2022/12/04 06:00:31;;;;;;;14.70;12.05;;;;;;;;;;4949254;29;20090;-70
2022/12/04 06:02:57;;;;;;;16.08;11.85;;;;;;;;;;4949883;28;20059;-70
2022/12/04 06:05:23;;;;;;;14.75;10.93;;;;;;;;;;4951966;29;20110;-70
2022/12/04 06:07:49;;;;;;;16.17;12.95;;;;;;;;;;4935847;29;20067;-70
2022/12/04 06:10:15;;;;;;;13.55;9.20;;;;;;;;;;4951340;29;20069;-70
2022/12/04 06:12:41;;;;;;;14.38;11.25;;;;;;;;;;4949440;29;20039;-70
2022/12/04 06:15:09;;;;;;;14.38;12.57;;;;;;;;;;4948052;29;20062;-70
2022/12/04 06:17:37;;;;;;;14.48;11.18;;;;;;;;;;4949131;28;20039;-71
2022/12/04 06:20:08;;;;;;;13.35;10.43;;;;;;;;;;4951557;29;20039;-71
2022/12/04 06:22:38;;;;;;;18.08;10.57;;;;;;;;;;4967103;28;20394;-70
2022/12/04 06:25:07;;;;;;;15.45;10.75;;;;;;;;;;4949599;29;20043;-71
2022/12/04 06:27:33;;;;;;;16.13;11.82;;;;;;;;;;4949800;28;20038;-71
2022/12/04 06:29:59;;;;;;;14.95;11.82;;;;;;;;;;4946618;28;20031;-70
2022/12/04 06:32:25;;;;;;;11.88;9.45;;;;;;;;;;4950689;29;20038;-70
2022/12/04 06:34:51;;;;;;;16.02;9.68;;;;;;;;;;4950548;29;20031;-70
2022/12/04 06:37:20;;;;;;;15.88;11.15;;;;;;;;;;4951134;28;20494;-71
2022/12/04 06:39:48;;;;;;;14.35;9.73;;;;;;;;;;4933662;29;20521;-70
2022/12/04 06:42:16;;;;;;;19.45;11.90;;;;;;;;;;4950812;28;20035;-70
2022/12/04 06:44:47;;;;;;;16.90;12.15;;;;;;;;;;4965824;28;20494;-71
2022/12/04 06:47:13;;;;;;;14.35;11.50;;;;;;;;;;4947485;28;20031;-71
2022/12/04 06:49:41;;;;;;;12.35;9.43;;;;;;;;;;4951816;29;20039;-71
2022/12/04 06:52:07;;;;;;;14.15;11.50;;;;;;;;;;4950832;29;20035;-72
2022/12/04 06:54:35;;;;;;;10.50;8.43;;;;;;;;;;4948989;28;20130;-71
2022/12/04 06:57:02;;;;;;;12.58;9.58;;;;;;;;;;4953307;23;1171399;-75
2022/12/04 06:59:31;;;;;;;14.23;11.38;;;;;;;;;;4964859;28;20041;-75
2022/12/04 07:01:59;;;;;;;11.60;8.93;;;;;;;;;;4949983;28;20370;-75
2022/12/04 07:04:25;;;;;;;11.18;8.02;;;;;;;;;;4963796;28;20045;-75
2022/12/04 07:06:53;;;;;;;11.85;8.70;;;;;;;;;;4967370;28;20060;-76
2022/12/04 07:09:22;;;;;;;17.42;12.85;;;;;;;;;;4949627;29;20039;-75
2022/12/04 07:11:53;;;;;;;13.73;10.07;;;;;;;;;;4950230;29;20038;-76
2022/12/04 07:14:19;;;;;;;14.00;9.70;;;;;;;;;;4941547;29;20027;-76
2022/12/04 07:16:45;;;;;;;12.60;11.32;;;;;;;;;;4950867;29;20031;-76
2022/12/04 07:19:12;;;;;;;14.55;10.48;;;;;;;;;;4948026;28;20128;-76
2022/12/04 07:21:40;;;;;;;13.25;10.48;;;;;;;;;;4951260;29;20027;-76
2022/12/04 07:24:06;;;;;;;17.30;9.73;;;;;;;;;;4951100;29;20030;-76
2022/12/04 07:26:32;;;;;;;19.23;10.85;;;;;;;;;;4948031;29;20035;-80
2022/12/04 07:28:58;;;;;;;18.73;10.23;;;;;;;;;;4948908;28;20126;-75
2022/12/04 07:31:24;;;;;;;15.05;12.05;;;;;;;;;;4946016;29;20031;-75
2022/12/04 07:33:53;;;;;;;11.43;8.90;;;;;;;;;;4945193;29;20035;-75
2022/12/04 07:36:19;;;;;;;14.20;9.73;;;;;;;;;;4948928;29;20482;-76
2022/12/04 07:38:48;;;;;;;13.98;9.90;;;;;;;;;;4950056;28;20036;-75
2022/12/04 07:41:17;;;;;;;18.02;9.77;;;;;;;;;;4944327;29;20047;-76
2022/12/04 07:43:46;;;;;;;11.43;8.23;;;;;;;;;;4950880;29;20504;-76
2022/12/04 07:46:15;;;;;;;14.55;8.73;;;;;;;;;;4949127;29;20058;-75
2022/12/04 07:48:41;;;;;;;13.05;10.35;;;;;;;;;;4948934;29;20055;-76
2022/12/04 07:51:07;;;;;;;14.38;9.90;;;;;;;;;;4948173;29;20042;-75
2022/12/04 07:53:34;;;;;;;16.85;9.45;;;;;;;;;;4952723;29;20039;-75
2022/12/04 07:56:03;;;;;;;15.73;11.70;;;;;;;;;;4952314;29;20045;-75
2022/12/04 07:58:36;;;;;;;13.25;8.95;;;;;;;;;;4949330;28;20409;-76
2022/12/04 08:01:04;;;;;;;17.00;11.40;;;;;;;;;;4950206;29;20024;-75
2022/12/04 08:03:30;;;;;;;14.13;9.65;;;;;;;;;;4950463;28;20028;-76
2022/12/04 08:05:59;;;;;;;10.65;9.00;;;;;;;;;;4919601;29;20031;-76
2022/12/04 08:08:25;;;;;;;10.95;8.80;;;;;;;;;;4953559;28;20050;-75
2022/12/04 08:10:51;;;;;;;12.75;8.32;;;;;;;;;;4953332;28;20039;-76
2022/12/04 08:13:17;;;;;;;14.27;9.30;;;;;;;;;;4951018;28;20035;-77
2022/12/04 08:15:47;;;;;;;9.48;8.50;;;;;;;;;;4950976;29;20111;-75
2022/12/04 08:18:18;;;;;;;13.07;9.57;;;;;;;;;;4950400;29;20039;-76
2022/12/04 08:20:46;;;;;;;13.15;10.25;;;;;;;;;;4953177;29;20027;-76
2022/12/04 08:23:14;;;;;;;10.43;8.15;;;;;;;;;;4949844;28;20032;-76
2022/12/04 08:25:42;;;;;;;15.82;9.25;;;;;;;;;;4951139;29;20031;-76
2022/12/04 08:28:08;;;;;;;11.23;8.38;;;;;;;;;;4954396;29;20037;-75
2022/12/04 08:30:37;;;;;;;12.40;9.70;;;;;;;;;;4946722;29;20039;-76
2022/12/04 08:33:03;;;;;;;12.00;8.98;;;;;;;;;;4944862;29;20082;-76
2022/12/04 08:35:29;;;;;;;14.52;9.65;;;;;;;;;;4952749;29;20031;-76
2022/12/04 08:37:57;;;;;;;12.27;9.23;;;;;;;;;;4952020;28;20038;-76
2022/12/04 08:40:26;;;;;;;15.48;9.07;;;;;;;;;;4952310;29;20478;-76
2022/12/04 08:42:56;;;;;;;13.68;9.77;;;;;;;;;;4949268;28;20371;-76
2022/12/04 08:45:25;;;;;;;13.20;10.20;;;;;;;;;;4952842;29;20027;-76
2022/12/04 08:47:55;;;;;;;17.33;11.88;;;;;;;;;;4949422;28;20039;-76
2022/12/04 08:50:26;;;;;;;11.13;9.20;;;;;;;;;;4950761;29;20046;-76
2022/12/04 08:52:52;;;;;;;12.88;8.60;;;;;;;;;;4951585;29;20042;-76
2022/12/04 08:55:20;;;;;;;12.77;9.10;;;;;;;;;;4948944;28;20043;-75
2022/12/04 08:57:49;;;;;;;12.05;8.80;;;;;;;;;;4949453;28;20122;-76
2022/12/04 09:00:17;;;;;;;18.10;10.93;;;;;;;;;;4947232;29;20027;-76
2022/12/04 09:02:49;;;;;;;15.40;9.15;;;;;;;;;;4930710;29;20032;-76
2022/12/04 09:05:22;;;;;;;11.63;9.00;;;;;;;;;;4934033;29;20141;-76
2022/12/04 09:07:50;;;;;;;12.85;9.52;;;;;;;;;;4950339;28;20031;-76
2022/12/04 09:10:19;;;;;;;13.68;10.75;;;;;;;;;;4946495;29;20038;-76
2022/12/04 09:12:45;;;;;;;13.35;8.88;;;;;;;;;;4948356;29;20090;-76
2022/12/04 09:15:11;;;;;;;15.40;10.60;;;;;;;;;;4944769;28;20074;-76
2022/12/04 09:17:39;;;;;;;16.30;11.10;;;;;;;;;;4952306;29;20023;-76
2022/12/04 09:20:07;;;;;;;11.55;8.82;;;;;;;;;;4948859;29;20027;-75
2022/12/04 09:22:36;;;;;;;19.13;11.32;;;;;;;;;;4953811;29;20034;-76
2022/12/04 09:25:04;;;;;;;12.88;9.60;;;;;;;;;;4933651;29;20480;-76
2022/12/04 09:27:37;;;;;;;14.13;9.98;;;;;;;;;;4951621;29;20028;-76
2022/12/04 09:30:06;;;;;;;16.77;10.13;;;;;;;;;;4950182;29;20474;-75
2022/12/04 09:32:34;;;;;;;14.40;11.38;;;;;;;;;;4950037;29;20429;-76
2022/12/04 09:35:00;;;;;;;17.50;13.38;;;;;;;;;;4935634;29;20031;-76
2022/12/04 09:37:29;;;;;;;12.30;8.63;;;;;;;;;;4948813;28;20031;-76
2022/12/04 09:39:57;;;;;;;11.38;8.80;;;;;;;;;;4947858;28;20034;-76
2022/12/04 09:42:34;;;;;;;13.30;9.43;;;;;;;;;;4948552;29;20039;-75
2022/12/04 09:45:30;;;;;;;13.57;11.32;;;;;;;;;;4948576;29;20042;-76
2022/12/04 09:47:59;;;;;;;10.50;9.30;;;;;;;;;;4939412;28;20048;-76
2022/12/04 09:50:31;;;;;;;16.52;9.95;;;;;;;;;;4950322;29;20042;-76
2022/12/04 09:52:58;;;;;;;16.00;10.38;;;;;;;;;;4950910;29;20038;-76
2022/12/04 09:55:29;;;;;;;11.63;8.85;;;;;;;;;;4949973;29;20031;-76
2022/12/04 09:57:58;;;;;;;12.02;9.48;;;;;;;;;;4946932;29;20046;-76
2022/12/04 10:00:24;;;;;;;12.45;9.32;;;;;;;;;;4948183;29;20027;-75
2022/12/04 10:03:15;;;;;;;15.25;10.55;;;;;;;;;;4948934;29;20031;-76
2022/12/04 10:05:41;;;;;;;19.73;10.10;;;;;;;;;;4938705;28;20043;-76
2022/12/04 10:08:17;;;;;;;16.98;10.18;;;;;;;;;;4933282;29;20043;-76
2022/12/04 10:10:49;;;;;;;18.80;9.18;;;;;;;;;;4931440;29;20050;-76
2022/12/04 10:13:20;;;;;;;11.93;10.23;;;;;;;;;;4966204;28;20496;-76
2022/12/04 10:16:04;;;;;;;15.23;10.90;;;;;;;;;;4948331;29;20490;-76
2022/12/04 10:18:36;;;;;;;14.27;10.77;;;;;;;;;;4952460;29;20028;-76
2022/12/04 10:21:05;;;;;;;12.43;10.35;;;;;;;;;;4943834;28;20477;-76
2022/12/04 10:23:30;;;;;;;11.48;9.50;;;;;;;;;;4946543;29;20497;-76
2022/12/04 10:25:57;;;;;;;18.95;12.45;;;;;;;;;;4943352;29;20031;-76
2022/12/04 10:28:40;;;;;;;18.17;12.32;;;;;;;;;;4950201;28;20046;-76
2022/12/04 10:31:14;;;;;;;14.98;9.93;;;;;;;;;;4942250;28;20032;-76
2022/12/04 10:33:39;;;;;;;11.80;10.13;;;;;;;;;;4948469;29;20042;-76
2022/12/04 10:36:16;;;;;;;13.18;9.65;;;;;;;;;;4949400;29;20383;-76
2022/12/04 10:38:55;;;;;;;14.40;10.80;;;;;;;;;;4947473;29;20034;-76
2022/12/04 10:41:28;;;;;;;15.70;10.15;;;;;;;;;;4949638;29;20026;-76
2022/12/04 10:43:56;;;;;;;12.02;9.07;;;;;;;;;;4948165;29;20031;-76
2022/12/04 10:46:29;;;;;;;16.40;8.90;;;;;;;;;;4950468;29;20027;-77
2022/12/04 10:49:08;;;;;;;11.73;8.48;;;;;;;;;;4948788;28;20031;-76
2022/12/04 10:51:40;;;;;;;15.10;9.82;;;;;;;;;;4948161;29;20382;-76
2022/12/04 10:54:28;;;;;;;11.73;10.60;;;;;;;;;;4946395;29;20516;-76
2022/12/04 10:57:00;;;;;;;10.57;8.55;;;;;;;;;;4946848;28;20035;-76
2022/12/04 10:59:31;;;;;;;14.77;9.80;;;;;;;;;;4932574;29;20040;-76
2022/12/04 11:01:59;;;;;;;11.60;9.10;;;;;;;;;;4951670;29;20034;-76
2022/12/04 11:04:30;;;;;;;15.15;8.95;;;;;;;;;;4946758;29;20509;-76
2022/12/04 11:07:04;;;;;;;15.38;10.80;;;;;;;;;;4950702;28;20035;-76
2022/12/04 11:09:30;;;;;;;10.25;8.20;;;;;;;;;;4946819;29;20417;-75
2022/12/04 11:12:14;;;;;;;12.25;8.70;;;;;;;;;;4947785;28;20027;-76
2022/12/04 11:14:40;;;;;;;9.32;7.55;;;;;;;;;;4929993;29;20043;-76
2022/12/04 11:17:08;;;;;;;10.18;8.85;;;;;;;;;;4943079;28;20035;-76
2022/12/04 11:19:37;;;;;;;12.48;7.15;;;;;;;;;;4931953;29;20034;-76
2022/12/04 11:22:29;;;;;;;12.80;10.40;;;;;;;;;;4932691;29;20039;-76
2022/12/04 11:24:56;;;;;;;13.95;9.68;;;;;;;;;;4927071;29;20047;-76
2022/12/04 11:27:28;;;;;;;15.38;10.80;;;;;;;;;;4951580;28;20042;-76
2022/12/04 11:29:54;;;;;;;13.52;9.68;;;;;;;;;;4955809;29;20027;-76
2022/12/04 11:32:24;;;;;;;15.23;8.40;;;;;;;;;;4944542;29;20039;-75
2022/12/04 11:34:52;;;;;;;9.02;6.57;;;;;;;;;;4921420;29;20031;-76
2022/12/04 11:37:26;;;;;;;14.00;8.85;;;;;;;;;;4947949;28;20054;-76
2022/12/04 11:39:54;;;;;;;9.65;6.35;;;;;;;;;;4952558;29;20487;-76
2022/12/04 11:42:24;;;;;;;11.80;7.82;;;;;;;;;;4954277;29;20059;-76
2022/12/04 11:44:53;;;;;;;15.75;8.32;;;;;;;;;;4951931;29;20054;-76
2022/12/04 11:47:25;;;;;;;9.98;7.47;;;;;;;;;;4946179;28;20024;-76
2022/12/04 11:50:13;;;;;;;10.55;7.20;;;;;;;;;;4947629;28;20035;-76
2022/12/04 11:53:06;;;;;;;13.13;7.75;;;;;;;;;;4936614;29;20035;-76
2022/12/04 11:55:50;;;;;;;12.10;7.78;;;;;;;;;;4946525;28;20506;-75
2022/12/04 11:58:27;;;;;;;9.50;7.55;;;;;;;;;;4947654;28;20031;-76
2022/12/04 12:01:11;;;;;;;11.20;6.97;;;;;;;;;;4946850;29;20032;-76
2022/12/04 12:03:50;;;;;;;8.25;6.75;;;;;;;;;;4949880;29;20040;-76
2022/12/04 12:06:18;;;;;;;12.35;7.55;;;;;;;;;;4948252;29;20042;-77
2022/12/04 12:08:59;;;;;;;13.82;8.55;;;;;;;;;;4953236;28;20035;-76
2022/12/04 12:11:39;;;;;;;8.60;5.88;;;;;;;;;;4948317;29;20499;-76
2022/12/04 12:14:13;;;;;;;13.17;8.67;;;;;;;;;;4944987;29;20039;-75
2022/12/04 12:16:48;;;;;;;10.48;7.75;;;;;;;;;;4949174;28;20421;-76
2022/12/04 12:19:38;;;;;;;10.77;7.00;;;;;;;;;;4944824;28;20050;-75
2022/12/04 12:22:24;;;;;;;12.90;7.85;;;;;;;;;;4937508;28;20050;-75
2022/12/04 12:25:15;;;;;;;11.40;7.88;;;;;;;;;;4953761;29;20426;-76
2022/12/04 12:28:02;;;;;;;13.10;11.63;;;;;;;;;;4949371;28;20031;-75
2022/12/04 12:30:42;;;;;;;18.35;11.23;;;;;;;;;;4949541;28;20036;-75
2022/12/04 12:33:28;;;;;;;13.95;11.18;;;;;;;;;;4948446;28;20023;-76
2022/12/04 12:36:05;;;;;;;12.75;8.77;;;;;;;;;;4964176;28;20437;-77
2022/12/04 12:38:39;;;;;;;9.93;7.38;;;;;;;;;;4951496;28;20027;-75
2022/12/04 12:41:12;;;;;;;10.20;7.63;;;;;;;;;;4948524;28;20038;-75
2022/12/04 12:43:38;;;;;;;9.07;7.22;;;;;;;;;;4953881;29;20058;-75
2022/12/04 12:46:13;;;;;;;11.07;7.53;;;;;;;;;;4943741;28;20027;-75
2022/12/04 12:48:50;;;;;;;11.75;6.68;;;;;;;;;;4952882;28;20039;-75
2022/12/04 12:51:40;;;;;;;10.93;8.05;;;;;;;;;;4951071;28;20023;-75
2022/12/04 12:54:25;;;;;;;12.25;7.40;;;;;;;;;;4943495;29;20409;-75
2022/12/04 12:57:09;;;;;;;8.27;7.40;;;;;;;;;;4949023;28;20405;-75
2022/12/04 12:59:38;;;;;;;9.70;5.90;;;;;;;;;;4980665;23;20405;-71
2022/12/04 13:02:13;;;;;;;12.38;7.60;;;;;;;;;;4939383;28;20026;-71
2022/12/04 13:04:42;;;;;;;11.38;8.68;;;;;;;;;;4962920;28;20501;-71
2022/12/04 13:07:10;;;;;;;17.52;8.77;;;;;;;;;;4932216;28;20050;-71
2022/12/04 13:09:42;;;;;;;12.45;7.55;;;;;;;;;;4951937;28;20492;-72
2022/12/04 13:12:11;;;;;;;10.05;7.95;;;;;;;;;;4948463;28;20035;-72
2022/12/04 13:14:37;;;;;;;11.55;8.32;;;;;;;;;;4943722;28;20035;-73
2022/12/04 13:17:10;;;;;;;8.80;7.00;;;;;;;;;;4962266;28;20035;-72
2022/12/04 13:19:45;;;;;;;11.50;8.70;;;;;;;;;;4981401;28;20038;-72
2022/12/04 13:22:25;;;;;;;12.55;8.88;;;;;;;;;;4966805;28;20023;-72
2022/12/04 13:25:12;;;;;;;11.15;8.57;;;;;;;;;;4970077;28;20049;-72
2022/12/04 13:27:41;;;;;;;10.70;7.75;;;;;;;;;;4970431;28;20034;-72
2022/12/04 13:30:18;;;;;;;10.80;7.32;;;;;;;;;;4969158;28;20038;-71
2022/12/04 13:33:05;;;;;;;10.45;8.25;;;;;;;;;;4969284;28;20425;-72
2022/12/04 13:35:37;;;;;;;10.50;9.32;;;;;;;;;;4972522;28;20043;-72
2022/12/04 13:38:03;;;;;;;10.93;9.02;;;;;;;;;;4982890;28;20027;-72
2022/12/04 13:40:32;;;;;;;12.02;7.60;;;;;;;;;;4969002;28;20023;-71
2022/12/04 13:43:12;;;;;;;12.90;9.10;;;;;;;;;;4963534;28;20469;-71
2022/12/04 13:45:41;;;;;;;8.73;7.22;;;;;;;;;;4969042;28;20038;-71
2022/12/04 13:48:11;;;;;;;11.75;8.88;;;;;;;;;;4983117;28;20026;-72
2022/12/04 13:50:40;;;;;;;10.88;8.88;;;;;;;;;;4969760;28;20023;-71
2022/12/04 13:53:28;;;;;;;12.82;11.50;;;;;;;;;;4971266;28;20035;-71
2022/12/04 13:55:59;;;;;;;12.68;9.30;;;;;;;;;;4967274;28;20031;-72
2022/12/04 13:58:28;;;;;;;14.35;11.20;;;;;;;;;;4969609;28;20042;-71
2022/12/04 14:01:03;;;;;;;11.73;8.68;;;;;;;;;;4966483;28;20378;-71
2022/12/04 14:03:33;;;;;;;12.25;8.75;;;;;;;;;;4966442;28;20027;-71
2022/12/04 14:06:04;;;;;;;11.23;8.35;;;;;;;;;;4964132;28;20042;-71
2022/12/04 14:08:35;;;;;;;17.95;10.27;;;;;;;;;;4967709;28;20109;-71
2022/12/04 14:11:02;;;;;;;13.45;8.32;;;;;;;;;;4967798;28;20023;-71
2022/12/04 14:13:41;;;;;;;11.68;8.25;;;;;;;;;;4959365;28;20993;-72
2022/12/04 14:16:15;;;;;;;16.35;9.25;;;;;;;;;;4965567;28;20042;-72
2022/12/04 14:18:51;;;;;;;12.75;9.13;;;;;;;;;;4990482;28;20035;-72
2022/12/04 14:21:20;;;;;;;10.73;7.40;;;;;;;;;;4967784;28;20482;-72
2022/12/04 14:23:51;;;;;;;12.07;9.43;;;;;;;;;;4975491;28;20027;-72
2022/12/04 14:26:42;;;;;;;12.43;8.10;;;;;;;;;;4967949;28;20046;-72
2022/12/04 14:29:19;;;;;;;10.32;7.45;;;;;;;;;;4966815;28;20042;-71
2022/12/04 14:31:45;;;;;;;9.68;7.35;;;;;;;;;;4967851;28;20031;-71
2022/12/04 14:34:22;;;;;;;11.80;8.15;;;;;;;;;;4969253;28;20068;-71
2022/12/04 14:36:50;;;;;;;12.13;9.98;;;;;;;;;;4957540;28;20477;-72
2022/12/04 14:39:18;;;;;;;11.73;8.20;;;;;;;;;;4960365;28;20046;-71
2022/12/04 14:41:46;;;;;;;9.27;7.57;;;;;;;;;;4959783;28;20036;-71
2022/12/04 14:44:28;;;;;;;9.73;8.60;;;;;;;;;;4955209;28;20038;-70
2022/12/04 14:47:03;;;;;;;11.18;8.88;;;;;;;;;;4958050;28;20049;-71
2022/12/04 14:49:32;;;;;;;10.95;8.23;;;;;;;;;;4955590;28;20038;-71
2022/12/04 14:51:58;;;;;;;8.98;8.00;;;;;;;;;;4944304;28;20043;-70
2022/12/04 14:54:37;;;;;;;10.77;8.50;;;;;;;;;;4956503;28;20041;-70
2022/12/04 14:57:08;;;;;;;13.38;9.88;;;;;;;;;;4957624;28;20035;-70